Time;durP1;ratioP1;P1;durP2;ratioP2;P2;SDS_P1;SDS_P2;PMS_P1;PMS_P2;Temp;Humidity;BMP_temperature;BMP_pressure;BME280_temperature;BME280_humidity;BME280_pressure;Samples;Min_cycle;Max_cycle;Signal;HPM_P1;HPM_P2
2023/06/23 00:01:59;;;;;;;10.73;6.68;;;;;;;18.17;88.22;101747.16;5074703;28;20028;-65
2023/06/23 00:04:24;;;;;;;9.63;6.47;;;;;;;18.19;88.91;101748.00;5074760;28;20043;-65
2023/06/23 00:06:50;;;;;;;9.85;6.80;;;;;;;18.11;88.90;101753.41;5074655;28;20025;-65
2023/06/23 00:09:17;;;;;;;10.88;6.85;;;;;;;18.04;88.92;101757.03;5074750;28;20040;-65
2023/06/23 00:11:43;;;;;;;12.20;6.95;;;;;;;18.08;88.85;101761.47;5074433;28;20032;-65
2023/06/23 00:14:09;;;;;;;11.88;7.40;;;;;;;18.06;89.37;101765.91;5074541;28;20032;-64
2023/06/23 00:16:36;;;;;;;11.65;7.47;;;;;;;18.02;88.73;101764.16;5074157;28;20020;-67
2023/06/23 00:19:02;;;;;;;15.15;7.05;;;;;;;18.04;88.68;101766.84;5074416;28;20033;-65
2023/06/23 00:21:27;;;;;;;10.40;7.55;;;;;;;18.02;89.11;101778.41;5073043;28;20456;-67
2023/06/23 00:23:54;;;;;;;10.90;7.75;;;;;;;17.99;88.95;101774.91;5074361;28;20031;-67
2023/06/23 00:26:20;;;;;;;11.30;7.47;;;;;;;17.93;88.61;101780.25;5074588;28;20033;-67
2023/06/23 00:28:46;;;;;;;8.48;7.20;;;;;;;17.88;89.58;101784.75;5074235;28;20025;-67
2023/06/23 00:31:11;;;;;;;11.90;7.32;;;;;;;17.90;89.51;101774.91;5074101;28;20024;-67
2023/06/23 00:33:37;;;;;;;12.30;7.65;;;;;;;17.87;89.43;101783.84;5073949;28;20068;-67
2023/06/23 00:36:04;;;;;;;11.52;7.28;;;;;;;17.86;89.99;101791.84;5074098;28;20362;-67
2023/06/23 00:38:29;;;;;;;11.07;7.97;;;;;;;17.83;90.04;101789.22;5056537;28;20119;-67
2023/06/23 00:40:54;;;;;;;13.75;7.95;;;;;;;17.80;89.76;101789.22;5073965;28;20119;-67
2023/06/23 00:43:20;;;;;;;11.75;7.75;;;;;;;17.84;89.67;101794.56;5073766;28;20059;-67
2023/06/23 00:45:45;;;;;;;11.77;8.43;;;;;;;17.81;90.31;101793.66;5073834;28;20430;-66
2023/06/23 00:48:14;;;;;;;16.30;8.18;;;;;;;17.77;89.67;101804.41;5073754;28;20025;-67
2023/06/23 00:50:41;;;;;;;11.32;8.07;;;;;;;17.87;90.28;101804.34;5073907;28;20029;-67
2023/06/23 00:53:07;;;;;;;13.13;8.38;;;;;;;17.81;89.89;101809.72;5073598;28;20054;-67
2023/06/23 00:55:37;;;;;;;13.00;8.50;;;;;;;17.77;89.86;101814.16;5073320;28;20020;-67
2023/06/23 00:58:02;;;;;;;12.27;8.52;;;;;;;17.71;90.16;101814.16;5073669;28;20504;-66
2023/06/23 01:00:29;;;;;;;14.40;8.95;;;;;;;17.65;90.25;101823.09;5073649;28;20028;-66
2023/06/23 01:02:59;;;;;;;13.90;9.25;;;;;;;17.57;91.35;101829.38;5073337;28;20062;-67
2023/06/23 01:05:37;;;;;;;11.00;8.65;;;;;;;17.61;91.57;101845.41;5073380;28;20024;-67
2023/06/23 01:08:18;;;;;;;12.70;9.23;;;;;;;17.56;91.29;101846.28;5073725;28;20040;-66
2023/06/23 01:11:05;;;;;;;15.82;8.85;;;;;;;17.62;91.21;101839.16;5073254;28;20021;-67
2023/06/23 01:13:44;;;;;;;17.30;9.38;;;;;;;17.64;91.59;101842.69;5060036;28;20040;-67
2023/06/23 01:16:18;;;;;;;14.30;9.40;;;;;;;17.55;91.18;101840.03;5073388;28;20430;-67
2023/06/23 01:19:01;;;;;;;13.50;9.52;;;;;;;17.55;91.52;101833.81;5072958;28;20078;-66
2023/06/23 01:21:38;;;;;;;15.07;9.60;;;;;;;17.48;91.59;101832.97;5073201;28;20072;-67
2023/06/23 01:24:15;;;;;;;13.38;9.73;;;;;;;17.53;92.01;101847.19;5073294;28;20057;-65
2023/06/23 01:27:08;;;;;;;15.30;10.05;;;;;;;17.58;91.39;101852.53;5073020;28;20366;-64
2023/06/23 01:29:36;;;;;;;16.35;10.60;;;;;;;17.53;91.66;101855.22;5073147;28;20544;-66
2023/06/23 01:32:01;;;;;;;17.92;10.85;;;;;;;17.52;91.71;101848.09;5072797;28;20066;-66
2023/06/23 01:34:49;;;;;;;13.93;10.27;;;;;;;17.44;91.65;101848.09;5072497;28;20434;-67
2023/06/23 01:37:26;;;;;;;14.25;10.50;;;;;;;17.42;92.11;101852.53;5073159;28;20520;-67
2023/06/23 01:39:56;;;;;;;15.13;10.35;;;;;;;17.43;92.20;101848.06;5073409;28;20028;-66
2023/06/23 01:42:25;;;;;;;18.23;11.20;;;;;;;17.31;92.53;101848.13;5072953;28;20082;-65
2023/06/23 01:44:57;;;;;;;17.27;10.88;;;;;;;17.27;92.66;101865.94;5072774;28;20027;-65
2023/06/23 01:47:28;;;;;;;16.33;11.40;;;;;;;17.23;93.25;101864.16;5054986;28;20056;-65
2023/06/23 01:49:54;;;;;;;15.23;11.15;;;;;;;17.23;93.16;101866.81;5072822;28;20028;-66
2023/06/23 01:52:21;;;;;;;15.75;11.45;;;;;;;17.17;93.55;101875.72;5072911;28;20021;-67
2023/06/23 01:54:48;;;;;;;16.73;11.05;;;;;;;17.24;93.25;101874.81;5072984;28;20111;-66
2023/06/23 01:57:15;;;;;;;18.20;12.13;;;;;;;17.21;92.83;101880.16;5073042;28;20021;-67
2023/06/23 01:59:43;;;;;;;15.35;11.73;;;;;;;17.28;92.80;101878.38;5072644;28;20035;-67
2023/06/23 02:02:10;;;;;;;16.33;11.60;;;;;;;17.23;92.36;101878.38;5073040;28;20069;-66
2023/06/23 02:04:37;;;;;;;18.15;11.40;;;;;;;17.23;92.68;101874.84;5072582;28;20169;-66
2023/06/23 02:07:04;;;;;;;15.48;11.70;;;;;;;17.26;92.50;101882.84;5072657;28;20111;-66
2023/06/23 02:09:30;;;;;;;17.08;12.93;;;;;;;17.25;92.89;101892.63;5072758;28;20024;-66
2023/06/23 02:11:58;;;;;;;14.93;10.43;;;;;;;17.28;92.34;101889.97;5072698;28;20493;-66
2023/06/23 02:14:25;;;;;;;16.13;11.82;;;;;;;17.22;92.51;101892.66;5072563;28;20028;-67
2023/06/23 02:16:53;;;;;;;18.50;12.60;;;;;;;17.15;92.48;101900.66;5072691;28;20477;-67
2023/06/23 02:19:21;;;;;;;17.45;10.98;;;;;;;17.24;92.22;101896.19;5072611;28;20039;-67
2023/06/23 02:21:48;;;;;;;15.63;11.55;;;;;;;17.25;92.17;101900.63;5072452;28;20098;-67
2023/06/23 02:24:15;;;;;;;16.70;12.23;;;;;;;17.18;91.89;101898.88;5072568;28;20028;-67
2023/06/23 02:26:41;;;;;;;16.55;11.90;;;;;;;17.20;92.01;101917.56;5072267;28;20486;-67
2023/06/23 02:29:08;;;;;;;17.17;12.90;;;;;;;17.22;92.03;101919.34;5072520;28;20032;-67
2023/06/23 02:31:34;;;;;;;14.82;11.98;;;;;;;17.25;91.13;101926.47;5072635;28;20056;-67
2023/06/23 02:34:00;;;;;;;20.50;11.70;;;;;;;17.23;91.14;101937.16;5072222;28;20055;-67
2023/06/23 02:36:30;;;;;;;18.65;13.63;;;;;;;17.14;91.30;101939.81;5072250;28;20024;-67
2023/06/23 02:38:58;;;;;;;18.77;13.15;;;;;;;17.08;91.79;101933.56;5072342;28;20031;-67
2023/06/23 02:41:30;;;;;;;18.30;14.02;;;;;;;17.01;92.54;101938.91;5072079;28;20036;-67
2023/06/23 02:44:01;;;;;;;19.40;13.82;;;;;;;16.99;92.31;101939.78;5072380;28;20023;-67
2023/06/23 02:46:31;;;;;;;17.98;13.70;;;;;;;17.01;92.49;101951.38;5076316;28;20035;-66
2023/06/23 02:49:06;;;;;;;19.42;12.98;;;;;;;17.08;92.19;101947.81;5075970;28;20492;-66
2023/06/23 02:51:35;;;;;;;20.40;14.25;;;;;;;17.06;92.27;101954.94;5076076;28;20032;-67
2023/06/23 02:54:06;;;;;;;18.95;14.48;;;;;;;17.07;92.20;101956.72;5075914;28;20035;-67
2023/06/23 02:56:34;;;;;;;16.63;12.50;;;;;;;17.13;92.01;101955.81;5075954;28;20028;-67
2023/06/23 02:59:06;;;;;;;23.42;15.40;;;;;;;17.02;92.34;101948.69;5075881;28;20040;-67
2023/06/23 03:01:36;;;;;;;21.30;15.55;;;;;;;16.95;92.05;101952.22;5058184;28;20096;-66
2023/06/23 03:04:01;;;;;;;20.20;14.60;;;;;;;17.00;92.49;101950.50;5075207;28;20116;-66
2023/06/23 03:06:27;;;;;;;22.23;16.08;;;;;;;16.94;92.46;101960.25;5075781;28;20059;-67
2023/06/23 03:08:53;;;;;;;21.88;16.30;;;;;;;16.93;92.51;101959.38;5075935;28;20021;-67
2023/06/23 03:11:20;;;;;;;24.17;16.77;;;;;;;16.86;92.73;101959.34;5075606;28;20105;-66
2023/06/23 03:13:46;;;;;;;22.70;15.70;;;;;;;16.90;93.00;101959.34;5075621;28;20103;-66
2023/06/23 03:16:15;;;;;;;24.88;17.08;;;;;;;16.85;93.28;101957.56;5075666;28;20028;-66
2023/06/23 03:18:51;;;;;;;23.10;17.35;;;;;;;16.78;93.59;101957.53;5075357;28;20017;-66
2023/06/23 03:21:18;;;;;;;28.48;18.73;;;;;;;16.77;93.75;101966.44;5075285;28;20024;-67
2023/06/23 03:23:49;;;;;;;26.73;17.95;;;;;;;16.78;93.66;101970.00;5075276;28;20111;-66
2023/06/23 03:26:19;;;;;;;28.20;19.52;;;;;;;16.77;94.05;101968.22;5075186;28;20123;-67
2023/06/23 03:28:48;;;;;;;24.52;18.05;;;;;;;16.80;94.31;101967.34;5075485;28;20035;-66
2023/06/23 03:31:16;;;;;;;27.25;18.75;;;;;;;16.78;93.76;101973.53;5075137;28;20116;-67
2023/06/23 03:33:44;;;;;;;24.23;18.88;;;;;;;16.78;94.20;101976.22;5075213;28;20028;-67
2023/06/23 03:36:14;;;;;;;26.63;18.55;;;;;;;16.80;93.85;101976.25;5075190;28;20412;-67
2023/06/23 03:39:05;;;;;;;25.95;18.38;;;;;;;16.85;94.21;101978.94;5075586;28;20025;-67
2023/06/23 03:41:32;;;;;;;23.88;19.13;;;;;;;16.73;94.12;101980.66;5062775;28;20374;-66
2023/06/23 03:44:01;;;;;;;26.92;19.00;;;;;;;16.74;94.84;101978.88;5074764;28;20122;-67
2023/06/23 03:46:42;;;;;;;23.55;18.42;;;;;;;16.75;94.39;101980.69;5074922;28;20032;-67
2023/06/23 03:49:10;;;;;;;27.90;18.58;;;;;;;16.74;94.75;101981.53;5074899;28;20024;-67
2023/06/23 03:51:38;;;;;;;28.70;20.83;;;;;;;16.72;94.74;101969.94;5075205;28;20017;-67
2023/06/23 03:54:06;;;;;;;24.42;18.23;;;;;;;16.77;94.83;101981.56;5074861;28;20338;-66
2023/06/23 03:56:35;;;;;;;29.45;19.70;;;;;;;16.77;95.04;101982.44;5074491;28;20035;-67
2023/06/23 03:59:02;;;;;;;27.98;18.33;;;;;;;16.81;94.35;101991.38;5074997;28;20036;-67
2023/06/23 04:01:29;;;;;;;26.95;19.75;;;;;;;16.83;94.52;101991.34;5074871;28;20089;-66
2023/06/23 04:03:56;;;;;;;29.98;20.23;;;;;;;16.86;94.52;101994.94;5074265;28;20483;-66
2023/06/23 04:06:24;;;;;;;27.25;18.98;;;;;;;16.88;94.17;102005.63;5074709;28;20078;-67
2023/06/23 04:08:53;;;;;;;29.08;20.50;;;;;;;16.90;94.07;102009.19;5074263;28;20039;-67
2023/06/23 04:11:21;;;;;;;27.75;19.02;;;;;;;16.87;94.36;102015.41;5056698;28;20027;-67
2023/06/23 04:13:49;;;;;;;28.38;19.75;;;;;;;16.90;94.46;102012.75;5074421;28;20051;-67
2023/06/23 04:16:16;;;;;;;33.17;19.65;;;;;;;16.93;94.85;102014.56;5074399;28;20028;-67
2023/06/23 04:18:43;;;;;;;25.45;18.73;;;;;;;16.95;94.96;102013.66;5074385;28;20017;-67
2023/06/23 04:21:11;;;;;;;27.13;19.63;;;;;;;16.96;95.23;102009.22;5074197;28;20025;-66
2023/06/23 04:23:39;;;;;;;28.75;20.65;;;;;;;16.98;94.89;102012.78;5074119;28;20517;-67
2023/06/23 04:26:08;;;;;;;27.08;19.10;;;;;;;17.02;94.98;102012.78;5074542;28;20100;-66
2023/06/23 04:28:35;;;;;;;25.20;18.38;;;;;;;17.05;95.41;102019.94;5074140;28;20469;-66
2023/06/23 04:31:06;;;;;;;29.20;20.90;;;;;;;17.03;95.59;102022.56;5073973;28;20486;-66
2023/06/23 04:33:31;;;;;;;30.05;19.95;;;;;;;17.05;95.42;102019.94;5073866;28;20025;-67
2023/06/23 04:36:05;;;;;;;27.13;20.20;;;;;;;17.06;95.72;102026.16;5074030;28;20029;-67
2023/06/23 04:38:34;;;;;;;27.95;20.35;;;;;;;17.16;95.97;102028.84;5074247;28;20077;-66
2023/06/23 04:41:07;;;;;;;28.38;19.92;;;;;;;17.23;95.40;102024.41;5074293;28;20031;-67
2023/06/23 04:43:37;;;;;;;31.02;19.63;;;;;;;17.25;95.06;102033.31;5073979;28;20118;-66
2023/06/23 04:46:26;;;;;;;34.90;21.85;;;;;;;17.22;96.31;102041.34;5073922;28;20147;-66
2023/06/23 04:48:55;;;;;;;28.58;20.58;;;;;;;17.25;96.29;102044.88;5073766;28;20170;-66
2023/06/23 04:51:28;;;;;;;28.20;20.67;;;;;;;17.36;96.32;102049.38;5074015;28;20053;-66
2023/06/23 04:54:00;;;;;;;31.13;21.83;;;;;;;17.36;96.45;102044.94;5073690;28;20021;-67
2023/06/23 04:56:32;;;;;;;28.70;21.13;;;;;;;17.48;96.39;102044.97;5073991;28;20381;-67
2023/06/23 04:59:00;;;;;;;31.17;21.92;;;;;;;17.51;96.53;102052.06;5073584;28;20466;-67
2023/06/23 05:01:27;;;;;;;31.63;21.75;;;;;;;17.56;96.41;102049.41;5073455;28;20028;-66
2023/06/23 05:03:55;;;;;;;33.47;23.42;;;;;;;17.56;96.39;102047.66;5055290;28;20496;-67
2023/06/23 05:06:22;;;;;;;32.92;22.77;;;;;;;17.61;96.92;102059.22;5055625;28;20032;-67
2023/06/23 05:08:50;;;;;;;27.88;20.48;;;;;;;17.74;96.44;102069.06;5072893;28;20032;-67
2023/06/23 05:11:17;;;;;;;36.83;23.52;;;;;;;17.79;96.41;102074.41;5055769;28;20140;-67
2023/06/23 05:13:43;;;;;;;34.13;23.48;;;;;;;17.86;96.41;102068.19;5073020;28;20101;-66
2023/06/23 05:16:11;;;;;;;31.92;22.77;;;;;;;17.96;96.07;102077.09;5073428;28;20183;-66
2023/06/23 05:18:38;;;;;;;36.03;23.92;;;;;;;18.02;96.23;102075.28;5073081;28;20499;-66
2023/06/23 05:21:05;;;;;;;31.90;23.00;;;;;;;18.14;95.80;102071.72;5055220;28;20056;-65
2023/06/23 05:23:39;;;;;;;33.95;22.52;;;;;;;18.26;95.55;102076.19;5073291;28;20029;-65
2023/06/23 05:26:06;;;;;;;33.25;23.40;;;;;;;18.38;94.48;102070.81;5073025;28;20550;-65
2023/06/23 05:28:35;;;;;;;30.85;22.90;;;;;;;18.46;94.49;102078.84;5073116;28;20020;-65
2023/06/23 05:31:03;;;;;;;33.85;23.20;;;;;;;18.50;94.43;102080.63;5073260;28;20115;-65
2023/06/23 05:33:31;;;;;;;32.78;23.23;;;;;;;18.52;95.23;102082.38;5072795;28;20031;-65
2023/06/23 05:35:57;;;;;;;34.33;24.15;;;;;;;18.61;94.98;102081.47;5073100;28;20469;-65
2023/06/23 05:38:25;;;;;;;37.50;23.58;;;;;;;18.69;94.74;102085.03;5073242;28;20028;-65
2023/06/23 05:40:51;;;;;;;35.35;23.95;;;;;;;18.75;95.19;102089.47;5072825;28;20037;-64
2023/06/23 05:43:16;;;;;;;30.85;21.88;;;;;;;18.85;94.29;102090.38;5073165;28;20028;-64
2023/06/23 05:45:42;;;;;;;34.08;23.10;;;;;;;18.93;93.83;102088.56;5073134;28;20036;-65
2023/06/23 05:48:30;;;;;;;32.45;23.73;;;;;;;18.99;94.18;102085.84;5072833;28;20029;-65
2023/06/23 05:50:58;;;;;;;29.83;22.95;;;;;;;19.08;94.07;102095.63;5059408;28;20040;-65
2023/06/23 05:53:25;;;;;;;36.60;23.77;;;;;;;19.14;93.59;102095.56;5072988;28;20020;-65
2023/06/23 05:55:58;;;;;;;36.85;24.02;;;;;;;19.24;93.47;102108.94;5072547;28;20528;-64
2023/06/23 05:58:25;;;;;;;;;;;;;;;19.40;92.87;102107.06;5073102;28;20055;-65
2023/06/23 06:00:53;;;;;;;30.45;22.67;;;;;;;19.39;93.81;102102.59;5072556;28;20003;-64
2023/06/23 06:03:24;;;;;;;35.28;23.27;;;;;;;19.45;92.01;102107.06;5072282;28;20426;-65
2023/06/23 06:05:54;;;;;;;37.35;24.67;;;;;;;19.55;92.09;102107.88;5072489;28;20028;-65
2023/06/23 06:08:21;;;;;;;35.38;23.75;;;;;;;19.66;92.77;102109.63;5072631;28;20097;-65
2023/06/23 06:10:48;;;;;;;32.72;23.70;;;;;;;19.84;91.86;102126.50;5072550;28;20028;-65
2023/06/23 06:13:17;;;;;;;34.90;24.33;;;;;;;19.90;92.29;102115.69;5072579;28;20482;-65
2023/06/23 06:15:45;;;;;;;35.35;24.70;;;;;;;20.02;90.69;102129.91;5072835;28;20326;-65
2023/06/23 06:18:13;;;;;;;35.45;24.60;;;;;;;20.20;90.97;102131.56;5072191;28;20451;-65
2023/06/23 06:20:41;;;;;;;34.80;24.13;;;;;;;20.32;89.32;102130.56;5075040;28;20424;-65
2023/06/23 06:23:08;;;;;;;35.63;23.88;;;;;;;20.33;89.00;102126.06;5076258;28;20048;-64
2023/06/23 06:25:35;;;;;;;34.70;25.17;;;;;;;20.33;88.80;102132.34;5058501;28;20059;-65
2023/06/23 06:28:05;;;;;;;34.30;26.00;;;;;;;20.29;87.57;102133.25;5076609;28;20029;-65
2023/06/23 06:30:32;;;;;;;34.58;25.70;;;;;;;20.27;88.75;102135.09;5076358;28;20074;-65
2023/06/23 06:33:00;;;;;;;32.38;23.83;;;;;;;20.36;88.61;102137.69;5075836;28;20219;-64
2023/06/23 06:35:27;;;;;;;35.53;25.00;;;;;;;20.47;88.38;102133.13;5076352;28;20033;-65
2023/06/23 06:37:56;;;;;;;34.38;23.67;;;;;;;20.66;86.72;102133.84;5076325;28;20036;-65
2023/06/23 06:40:24;;;;;;;34.25;24.70;;;;;;;20.80;85.77;102147.13;5076265;28;20071;-65
2023/06/23 06:42:49;;;;;;;33.08;24.70;;;;;;;20.96;85.41;102150.53;5058489;28;20029;-64
2023/06/23 06:45:15;;;;;;;34.58;25.33;;;;;;;21.14;84.06;102155.69;5075304;28;20033;-65
2023/06/23 06:47:43;;;;;;;33.08;24.02;;;;;;;21.30;83.69;102156.38;5075943;28;20021;-65
2023/06/23 06:50:13;;;;;;;32.15;24.15;;;;;;;21.49;82.66;102157.94;5075769;28;20155;-65
2023/06/23 06:52:40;;;;;;;33.47;24.88;;;;;;;21.72;82.70;102156.75;5076259;28;20024;-64
2023/06/23 06:55:09;;;;;;;33.15;24.02;;;;;;;21.93;81.38;102160.94;5075979;28;20032;-64
2023/06/23 06:57:35;;;;;;;30.95;24.55;;;;;;;22.03;81.67;102161.66;5076078;28;20039;-65
2023/06/23 07:00:04;;;;;;;33.05;25.00;;;;;;;22.01;80.00;102167.06;5075798;28;20029;-64
2023/06/23 07:02:31;;;;;;;32.28;24.15;;;;;;;22.14;79.05;102167.78;5076110;28;20024;-65
2023/06/23 07:04:58;;;;;;;30.60;22.27;;;;;;;22.25;78.02;102177.47;5075547;28;20052;-65
2023/06/23 07:07:24;;;;;;;29.35;22.35;;;;;;;22.44;78.40;102175.38;5075873;28;20025;-65
2023/06/23 07:09:50;;;;;;;30.45;22.77;;;;;;;22.68;80.54;102178.53;5075696;28;20413;-65
2023/06/23 07:12:16;;;;;;;27.23;21.15;;;;;;;22.84;76.19;102173.75;5075732;28;20029;-65
2023/06/23 07:14:41;;;;;;;26.08;20.58;;;;;;;23.04;75.44;102179.69;5075637;28;20103;-65
2023/06/23 07:17:06;;;;;;;27.63;20.75;;;;;;;23.09;72.85;102184.97;5075528;28;20443;-65
2023/06/23 07:19:32;;;;;;;28.88;19.98;;;;;;;23.21;73.41;102182.94;5075376;28;20039;-65
2023/06/23 07:21:57;;;;;;;27.00;21.05;;;;;;;23.34;73.16;102191.66;5075375;28;20049;-65
2023/06/23 07:24:23;;;;;;;27.52;20.60;;;;;;;23.43;73.26;102188.75;5075492;28;20465;-66
2023/06/23 07:26:49;;;;;;;26.40;21.08;;;;;;;23.41;72.95;102198.66;5075436;28;20028;-66
2023/06/23 07:29:14;;;;;;;25.88;20.65;;;;;;;23.61;70.78;102200.06;5074982;28;20150;-65
2023/06/23 07:31:40;;;;;;;28.90;21.02;;;;;;;23.74;69.73;102207.88;5074964;28;20032;-65
2023/06/23 07:34:05;;;;;;;27.90;18.92;;;;;;;23.79;70.59;102201.50;5056985;28;20028;-65
2023/06/23 07:36:31;;;;;;;26.80;20.35;;;;;;;23.97;72.18;102198.38;5075469;28;20020;-65
2023/06/23 07:38:56;;;;;;;25.20;19.58;;;;;;;23.93;69.16;102202.06;5075078;28;20020;-65
2023/06/23 07:41:21;;;;;;;25.50;18.83;;;;;;;24.03;69.33;102205.44;5075101;28;20033;-65
2023/06/23 07:43:47;;;;;;;24.42;18.58;;;;;;;23.98;66.97;102201.03;5075247;28;20017;-65
2023/06/23 07:46:12;;;;;;;24.45;18.30;;;;;;;24.19;67.82;102207.72;5057163;28;20032;-65
2023/06/23 07:48:38;;;;;;;24.65;18.33;;;;;;;24.24;66.89;102219.31;5074933;28;20025;-65
2023/06/23 07:51:03;;;;;;;23.50;18.73;;;;;;;24.24;67.50;102213.03;5075174;28;20029;-65
2023/06/23 07:53:29;;;;;;;24.00;18.30;;;;;;;24.37;67.85;102206.44;5074927;28;20572;-65
2023/06/23 07:55:54;;;;;;;22.05;18.65;;;;;;;24.43;67.37;102205.38;5074966;28;20115;-65
2023/06/23 07:58:20;;;;;;;23.10;18.52;;;;;;;24.59;69.06;102205.88;5074783;28;20098;-65
2023/06/23 08:00:46;;;;;;;23.13;18.55;;;;;;;24.69;68.25;102212.81;5075180;28;20024;-65
2023/06/23 08:03:12;;;;;;;24.23;17.98;;;;;;;24.62;65.03;102214.78;5074664;28;20031;-65
2023/06/23 08:05:38;;;;;;;25.23;19.15;;;;;;;24.65;65.01;102213.81;5074674;28;20025;-65
2023/06/23 08:08:04;;;;;;;24.65;17.35;;;;;;;24.83;64.29;102213.31;5074943;28;20023;-65
2023/06/23 08:10:29;;;;;;;22.40;17.63;;;;;;;25.05;65.93;102210.91;5074537;28;20024;-65
2023/06/23 08:12:55;;;;;;;22.13;16.50;;;;;;;25.16;63.92;102214.25;5074512;28;20071;-65
2023/06/23 08:15:20;;;;;;;20.08;16.08;;;;;;;25.23;63.35;102209.56;5074700;28;20421;-65
2023/06/23 08:17:46;;;;;;;23.50;16.27;;;;;;;25.30;63.00;102208.44;5074759;28;20031;-65
2023/06/23 08:20:11;;;;;;;23.08;16.30;;;;;;;25.27;63.19;102207.63;5074627;28;20481;-65
2023/06/23 08:22:40;;;;;;;17.90;15.18;;;;;;;25.58;63.59;102213.94;5074150;28;20039;-65
2023/06/23 08:25:06;;;;;;;20.08;15.95;;;;;;;25.67;63.20;102210.06;5074123;28;20035;-65
2023/06/23 08:27:32;;;;;;;21.67;16.17;;;;;;;25.90;61.04;102212.06;5073967;28;20059;-64
2023/06/23 08:29:57;;;;;;;20.05;14.88;;;;;;;26.03;60.14;102208.03;5073813;28;20044;-65
2023/06/23 08:32:22;;;;;;;21.10;15.82;;;;;;;26.19;60.28;102217.44;5073917;28;20064;-65
2023/06/23 08:34:49;;;;;;;20.20;15.82;;;;;;;26.14;61.18;102214.00;5055973;28;20505;-64
2023/06/23 08:37:14;;;;;;;19.08;15.43;;;;;;;26.06;58.27;102210.66;5056254;28;20081;-64
2023/06/23 08:39:40;;;;;;;18.92;13.38;;;;;;;26.23;58.35;102219.13;5073922;28;20427;-63
2023/06/23 08:42:07;;;;;;;16.42;13.57;;;;;;;26.23;59.14;102223.66;5072731;28;20408;-64
2023/06/23 08:44:35;;;;;;;18.55;13.30;;;;;;;26.29;56.85;102225.28;5055993;28;20473;-64
2023/06/23 08:47:04;;;;;;;18.85;13.93;;;;;;;26.41;56.64;102230.28;5073802;28;20102;-64
2023/06/23 08:49:32;;;;;;;16.45;13.18;;;;;;;26.47;57.11;102227.44;5055768;28;20036;-64
2023/06/23 08:51:57;;;;;;;20.45;12.23;;;;;;;26.62;59.17;102234.13;5073860;28;20043;-65
2023/06/23 08:54:23;;;;;;;16.52;12.57;;;;;;;26.79;58.20;102236.25;5073694;28;20029;-64
2023/06/23 08:56:49;;;;;;;15.20;12.02;;;;;;;26.81;57.89;102235.28;5073659;28;20027;-64
2023/06/23 08:59:15;;;;;;;15.15;12.48;;;;;;;27.08;56.17;102237.94;5055802;28;20033;-63
2023/06/23 09:01:40;;;;;;;16.27;12.27;;;;;;;27.10;55.23;102244.22;5073438;28;20107;-64
2023/06/23 09:04:06;;;;;;;15.70;10.93;;;;;;;27.37;55.02;102248.66;5073415;28;20025;-64
2023/06/23 09:06:31;;;;;;;13.13;10.05;;;;;;;27.69;53.87;102249.25;5038759;28;20082;-64
2023/06/23 09:08:58;;;;;;;15.00;11.07;;;;;;;27.64;52.55;102256.69;5073378;28;20481;-64
2023/06/23 09:11:24;;;;;;;14.30;10.30;;;;;;;27.70;52.20;102251.91;5072974;28;20028;-64
2023/06/23 09:13:51;;;;;;;16.30;9.57;;;;;;;27.98;52.50;102252.69;5073688;28;20048;-64
2023/06/23 09:16:18;;;;;;;13.32;10.25;;;;;;;27.87;51.94;102247.69;5073019;28;20029;-63
2023/06/23 09:18:46;;;;;;;14.48;10.02;;;;;;;28.11;51.15;102245.81;5073147;28;20304;-64
2023/06/23 09:21:12;;;;;;;14.07;9.50;;;;;;;28.05;51.74;102252.41;5073354;28;20382;-64
2023/06/23 09:23:38;;;;;;;13.63;9.50;;;;;;;28.33;51.29;102257.59;5073004;28;20423;-64
2023/06/23 09:26:06;;;;;;;11.02;8.02;;;;;;;28.30;48.40;102267.69;5073151;28;20032;-64
2023/06/23 09:28:38;;;;;;;9.85;8.05;;;;;;;28.51;48.16;102255.97;5072975;28;20470;-64
2023/06/23 09:31:15;;;;;;;13.68;8.52;;;;;;;28.40;49.18;102263.69;5073131;28;20029;-63
2023/06/23 09:33:49;;;;;;;10.68;8.10;;;;;;;28.70;49.61;102259.69;5072574;28;20023;-63
2023/06/23 09:36:15;;;;;;;10.73;8.20;;;;;;;28.77;51.74;102265.72;5072632;28;20470;-64
2023/06/23 09:38:41;;;;;;;10.27;8.77;;;;;;;28.85;47.39;102277.16;5072985;28;20028;-64
2023/06/23 09:41:15;;;;;;;9.65;8.25;;;;;;;29.08;48.63;102275.31;5072923;28;20024;-63
2023/06/23 09:43:42;;;;;;;10.80;7.78;;;;;;;29.25;48.29;102283.63;5073230;28;20029;-64
2023/06/23 09:46:09;;;;;;;11.63;7.80;;;;;;;29.48;47.10;102278.97;5072691;28;20064;-63
2023/06/23 09:48:35;;;;;;;13.32;8.45;;;;;;;29.65;47.49;102277.28;5072724;28;20032;-63
2023/06/23 09:51:02;;;;;;;14.45;8.95;;;;;;;29.53;46.06;102272.34;5072537;28;20094;-64
2023/06/23 09:53:36;;;;;;;9.38;7.55;;;;;;;29.55;46.55;102269.53;5072748;28;20036;-63
2023/06/23 09:56:03;;;;;;;9.73;7.40;;;;;;;29.37;44.54;102280.34;5072662;28;20064;-63
2023/06/23 09:58:48;;;;;;;10.25;7.43;;;;;;;29.51;46.08;102279.72;5072606;28;20029;-63
2023/06/23 10:01:17;;;;;;;13.32;7.03;;;;;;;29.76;45.14;102274.03;5072611;28;20043;-63
2023/06/23 10:03:49;;;;;;;11.93;7.30;;;;;;;29.98;44.17;102275.72;5072569;28;20021;-63
2023/06/23 10:06:28;;;;;;;10.23;7.07;;;;;;;30.25;44.67;102263.53;5072894;28;20073;-63
2023/06/23 10:08:56;;;;;;;10.52;7.53;;;;;;;30.46;43.48;102269.75;5054654;28;20028;-62
2023/06/23 10:11:51;;;;;;;10.30;7.65;;;;;;;30.55;43.30;102260.22;5054847;28;20059;-63
2023/06/23 10:14:18;;;;;;;10.80;7.70;;;;;;;30.41;42.94;102260.94;5055051;28;20037;-63
2023/06/23 10:16:44;;;;;;;11.15;7.60;;;;;;;30.46;42.71;102264.31;5072230;28;20025;-63
2023/06/23 10:19:11;;;;;;;10.80;7.18;;;;;;;30.47;43.36;102265.19;5054629;28;20036;-64
2023/06/23 10:21:38;;;;;;;9.98;6.85;;;;;;;30.40;42.76;102265.47;5072050;28;20078;-64
2023/06/23 10:24:07;;;;;;;11.48;6.70;;;;;;;30.30;42.54;102260.56;5072415;28;20072;-63
2023/06/23 10:26:35;;;;;;;10.48;6.95;;;;;;;30.29;42.28;102259.69;5054149;28;20028;-63
2023/06/23 10:29:04;;;;;;;8.65;6.35;;;;;;;30.38;40.26;102263.78;5072493;28;20095;-63
2023/06/23 10:31:31;;;;;;;8.73;6.05;;;;;;;30.35;40.70;102270.28;5072346;28;20043;-63
2023/06/23 10:34:01;;;;;;;7.68;6.07;;;;;;;30.31;40.15;102267.78;5072096;28;20420;-63
2023/06/23 10:36:30;;;;;;;9.90;6.13;;;;;;;30.48;41.10;102264.22;5072412;28;20112;-63
2023/06/23 10:39:00;;;;;;;8.15;6.20;;;;;;;30.63;41.00;102269.78;5071985;28;20028;-63
2023/06/23 10:41:27;;;;;;;12.25;6.60;;;;;;;30.97;39.31;102270.81;5072528;28;20029;-62
2023/06/23 10:43:55;;;;;;;8.65;6.53;;;;;;;30.93;40.05;102269.19;5072272;28;20085;-62
2023/06/23 10:46:23;;;;;;;8.80;5.95;;;;;;;31.10;37.96;102271.03;5072409;28;20349;-63
2023/06/23 10:48:51;;;;;;;9.38;6.00;;;;;;;31.21;39.21;102274.06;5071839;28;20477;-62
2023/06/23 10:51:16;;;;;;;9.18;6.18;;;;;;;31.26;38.65;102273.81;5071861;28;20043;-63
2023/06/23 10:53:59;;;;;;;11.23;6.20;;;;;;;31.34;39.37;102274.31;5071674;28;20029;-62
2023/06/23 10:56:33;;;;;;;11.18;5.80;;;;;;;31.27;37.96;102272.88;5072294;28;20031;-63
2023/06/23 10:58:59;;;;;;;10.27;5.35;;;;;;;31.38;38.00;102262.25;5072268;28;20112;-61
2023/06/23 11:01:26;;;;;;;7.50;4.95;;;;;;;31.66;38.49;102270.72;5072386;28;20016;-62
2023/06/23 11:03:56;;;;;;;9.50;5.40;;;;;;;31.89;37.17;102271.31;5071906;28;20028;-63
2023/06/23 11:06:35;;;;;;;7.43;5.38;;;;;;;32.02;36.98;102271.50;5074220;28;20016;-63
2023/06/23 11:09:02;;;;;;;7.72;5.75;;;;;;;32.09;36.77;102271.06;5075706;28;20027;-62
2023/06/23 11:11:34;;;;;;;9.27;5.50;;;;;;;32.39;38.14;102271.16;5076075;28;20377;-62
2023/06/23 11:14:01;;;;;;;7.72;5.10;;;;;;;32.41;37.38;102279.28;5075541;28;20473;-63
2023/06/23 11:16:27;;;;;;;5.75;3.60;;;;;;;32.31;34.48;102276.16;5075517;28;20017;-62
2023/06/23 11:18:57;;;;;;;8.52;4.45;;;;;;;32.36;34.17;102278.63;5075128;28;20381;-62